Time;durP1;ratioP1;P1;durP2;ratioP2;P2;SDS_P1;SDS_P2;PMS_P1;PMS_P2;Temp;Humidity;BMP_temperature;BMP_pressure;BME280_temperature;BME280_humidity;BME280_pressure;Samples;Min_cycle;Max_cycle;Signal;HPM_P1;HPM_P2
2022/11/12 00:01:52;;;;;;;11.90;6.55;;;10.90;99.90;;;;;;5014068;28;20060;-80
2022/11/12 00:04:37;;;;;;;11.70;6.38;;;10.90;99.90;;;;;;5017102;28;20073;-80
2022/11/12 00:07:22;;;;;;;9.27;5.75;;;10.90;99.90;;;;;;5031660;28;20048;-80
2022/11/12 00:10:09;;;;;;;10.98;5.47;;;10.80;99.90;;;;;;5031903;28;20526;-80
2022/11/12 00:12:55;;;;;;;12.43;5.38;;;10.80;99.90;;;;;;5028667;28;20056;-81
2022/11/12 00:15:40;;;;;;;8.73;5.00;;;10.70;99.90;;;;;;5021519;28;20048;-81
2022/11/12 00:18:27;;;;;;;8.77;5.32;;;10.70;99.90;;;;;;5028054;28;20185;-80
2022/11/12 00:21:12;;;;;;;8.55;4.95;;;10.70;99.90;;;;;;5028639;28;20115;-80
2022/11/12 00:23:58;;;;;;;11.70;5.25;;;10.60;99.90;;;;;;5019945;28;20073;-81
2022/11/12 00:26:43;;;;;;;9.57;4.85;;;10.60;99.90;;;;;;5012052;28;20208;-80
2022/11/12 00:29:29;;;;;;;11.90;6.00;;;10.60;99.90;;;;;;5026654;28;20524;-80
2022/11/12 00:32:14;;;;;;;9.95;5.78;;;10.60;99.90;;;;;;5014426;28;20182;-80
2022/11/12 00:35:01;;;;;;;14.52;6.50;;;10.60;99.90;;;;;;5030759;28;20086;-80
2022/11/12 00:37:46;;;;;;;10.63;6.00;;;10.60;99.90;;;;;;5031674;28;20056;-80
2022/11/12 00:40:32;;;;;;;12.45;6.30;;;10.60;99.90;;;;;;5025612;28;20065;-80
2022/11/12 00:43:18;;;;;;;11.82;6.25;;;10.60;99.90;;;;;;5026375;28;20057;-80
2022/11/12 00:46:04;;;;;;;13.32;6.22;;;10.60;99.90;;;;;;5024138;28;20110;-80
2022/11/12 00:48:50;;;;;;;11.95;6.38;;;10.60;99.90;;;;;;5018965;28;20103;-80
2022/11/12 00:51:36;;;;;;;11.02;6.20;;;10.60;99.90;;;;;;5016185;28;20103;-80
2022/11/12 00:54:22;;;;;;;11.07;6.38;;;10.50;99.90;;;;;;5020911;28;20072;-80
2022/11/12 00:57:08;;;;;;;15.02;6.82;;;10.60;99.90;;;;;;5026946;28;20064;-80
2022/11/12 00:59:53;;;;;;;13.23;6.95;;;10.40;99.90;;;;;;5011316;28;20462;-80
2022/11/12 01:02:39;;;;;;;12.10;6.50;;;10.40;99.90;;;;;;5018441;28;20179;-80
2022/11/12 01:05:24;;;;;;;12.57;6.50;;;10.30;99.90;;;;;;5014751;28;20056;-80
2022/11/12 01:08:11;;;;;;;12.23;6.93;;;10.30;99.90;;;;;;5030987;28;20542;-80
2022/11/12 01:10:57;;;;;;;12.43;7.05;;;10.30;99.90;;;;;;5020794;28;20151;-80
2022/11/12 01:13:44;;;;;;;12.77;6.57;;;10.20;99.90;;;;;;5024608;28;20065;-80
2022/11/12 01:16:32;;;;;;;9.75;6.40;;;10.20;99.90;;;;;;5017871;28;20191;-80
2022/11/12 01:19:17;;;;;;;11.32;6.82;;;10.10;99.90;;;;;;5018710;28;20458;-81
2022/11/12 01:22:03;;;;;;;12.60;6.10;;;10.00;99.90;;;;;;5026103;28;20167;-80
2022/11/12 01:24:50;;;;;;;9.88;5.75;;;10.00;99.90;;;;;;5018134;28;20079;-80
2022/11/12 01:27:35;;;;;;;10.68;6.32;;;10.00;99.90;;;;;;5030773;28;20167;-80
2022/11/12 01:30:21;;;;;;;11.43;6.13;;;10.00;99.90;;;;;;5028396;28;20147;-80
2022/11/12 01:33:27;;;;;;;11.90;5.90;;;9.90;99.90;;;;;;5025805;28;20636;-80
2022/11/12 01:36:14;;;;;;;12.90;6.60;;;10.00;99.90;;;;;;5018682;28;20538;-80
2022/11/12 01:39:00;;;;;;;12.02;6.25;;;9.90;99.90;;;;;;5019549;28;20411;-80
2022/11/12 01:41:46;;;;;;;14.43;5.97;;;9.90;99.90;;;;;;5029820;28;20065;-80
2022/11/12 01:44:32;;;;;;;10.50;6.25;;;9.80;99.90;;;;;;5022028;28;20061;-80
2022/11/12 01:47:21;;;;;;;10.75;6.38;;;9.80;99.90;;;;;;5022369;28;20122;-80
2022/11/12 01:50:15;;;;;;;10.98;6.07;;;9.80;99.90;;;;;;5024398;28;20201;-81
2022/11/12 01:53:03;;;;;;;11.05;5.93;;;9.80;99.90;;;;;;5015392;28;20057;-80
2022/11/12 01:55:49;;;;;;;10.15;5.63;;;9.70;99.90;;;;;;5009632;28;20065;-80
2022/11/12 01:58:38;;;;;;;10.60;5.63;;;9.70;99.90;;;;;;5015399;28;20052;-80
2022/11/12 02:01:23;;;;;;;10.32;5.75;;;9.70;99.90;;;;;;5021886;28;20099;-80
2022/11/12 02:04:08;;;;;;;13.40;6.00;;;9.70;99.90;;;;;;5029529;28;20541;-80
2022/11/12 02:06:56;;;;;;;14.07;5.72;;;9.60;99.90;;;;;;5029567;28;20589;-80
2022/11/12 02:09:41;;;;;;;11.45;5.75;;;9.60;99.90;;;;;;5024355;28;20128;-80
2022/11/12 02:15:32;;;;;;;10.60;5.40;;;9.70;99.90;;;;;;5015628;28;20768;-81
2022/11/12 02:18:17;;;;;;;9.05;5.65;;;9.60;99.90;;;;;;5018008;28;20061;-81
2022/11/12 02:21:05;;;;;;;11.13;5.50;;;9.60;99.90;;;;;;5010915;28;20165;-81
2022/11/12 02:27:26;;;;;;;8.93;5.25;;;9.60;99.90;;;;;;5013986;28;20116;-80
2022/11/12 02:30:12;;;;;;;10.50;5.28;;;9.60;99.90;;;;;;5024300;28;20132;-80
2022/11/12 02:32:57;;;;;;;10.38;5.10;;;9.60;99.90;;;;;;5025326;28;20175;-80
2022/11/12 02:35:43;;;;;;;10.52;5.45;;;9.60;99.90;;;;;;5021608;28;20147;-81
2022/11/12 02:38:29;;;;;;;10.07;5.38;;;9.60;99.90;;;;;;5019213;28;20064;-80
2022/11/12 02:41:16;;;;;;;8.02;4.55;;;9.60;99.90;;;;;;5020017;28;20048;-80
2022/11/12 02:44:01;;;;;;;10.25;5.63;;;9.50;99.90;;;;;;5030078;28;20060;-81
2022/11/12 02:46:46;;;;;;;9.15;5.18;;;9.50;99.90;;;;;;5013855;28;20065;-80
2022/11/12 02:49:32;;;;;;;18.00;5.47;;;9.50;99.90;;;;;;5021210;28;20862;-80
2022/11/12 02:52:18;;;;;;;8.68;5.10;;;9.60;99.90;;;;;;5012583;28;20065;-80
2022/11/12 02:55:03;;;;;;;8.95;5.20;;;9.40;99.90;;;;;;5015518;28;20052;-80
2022/11/12 02:57:50;;;;;;;10.25;5.07;;;9.40;99.90;;;;;;5025342;28;20599;-80
2022/11/12 03:00:36;;;;;;;12.32;4.82;;;9.40;99.90;;;;;;5017677;28;20119;-80
2022/11/12 03:03:21;;;;;;;10.15;4.68;;;9.30;99.90;;;;;;5031885;28;20056;-80
2022/11/12 03:06:07;;;;;;;8.77;4.90;;;9.30;99.90;;;;;;5021009;28;20060;-80
2022/11/12 03:08:55;;;;;;;9.63;5.05;;;9.30;99.90;;;;;;5009472;28;20545;-80
2022/11/12 03:11:40;;;;;;;10.82;5.35;;;9.30;99.90;;;;;;5025549;28;20068;-80
2022/11/12 03:14:27;;;;;;;10.73;5.28;;;9.30;99.90;;;;;;5023610;28;20066;-80
2022/11/12 03:17:13;;;;;;;13.35;5.20;;;9.30;99.90;;;;;;5011436;28;20065;-80
2022/11/12 03:19:58;;;;;;;12.02;5.05;;;9.20;99.90;;;;;;5027236;28;20115;-80
2022/11/12 03:22:55;;;;;;;9.93;5.28;;;9.30;99.90;;;;;;5014172;28;20076;-80
2022/11/12 03:25:41;;;;;;;9.52;4.63;;;9.20;99.90;;;;;;5011087;28;20131;-80
2022/11/12 03:28:26;;;;;;;9.70;5.00;;;9.20;99.90;;;;;;5009396;28;20061;-81
2022/11/12 03:31:13;;;;;;;8.85;4.68;;;9.20;99.90;;;;;;5027455;28;20445;-80
2022/11/12 03:33:58;;;;;;;10.15;4.50;;;9.20;99.90;;;;;;5021170;28;20187;-80
2022/11/12 03:36:44;;;;;;;8.95;4.90;;;9.30;99.90;;;;;;5011072;28;20057;-80
2022/11/12 03:39:30;;;;;;;10.35;4.53;;;9.10;99.90;;;;;;5014573;28;20128;-80
2022/11/12 03:42:15;;;;;;;10.70;4.60;;;9.10;99.90;;;;;;5032143;28;20525;-80
2022/11/12 03:45:01;;;;;;;10.68;4.68;;;9.10;99.90;;;;;;5022070;28;20060;-80
2022/11/12 03:47:49;;;;;;;9.88;4.30;;;9.10;99.90;;;;;;5019217;28;20056;-80
2022/11/12 03:50:35;;;;;;;7.85;4.63;;;9.10;99.90;;;;;;5020675;28;20540;-80
2022/11/12 03:53:20;;;;;;;9.88;4.40;;;9.10;99.90;;;;;;5015696;28;20107;-80
2022/11/12 03:56:06;;;;;;;13.18;4.82;;;9.10;99.90;;;;;;5025192;28;20415;-80
2022/11/12 03:58:52;;;;;;;9.57;4.60;;;9.10;99.90;;;;;;5032202;28;20500;-80
2022/11/12 04:01:37;;;;;;;6.65;4.05;;;9.10;99.90;;;;;;5031930;28;20131;-80
2022/11/12 04:08:34;;;;;;;7.97;4.13;;;9.00;99.90;;;;;;5025291;28;20056;-80
2022/11/12 04:10:33;;;;;;;7.57;3.97;;;9.00;99.90;;;;;;5032050;28;20133;-80
2022/11/12 04:13:28;;;;;;;8.00;4.80;;;8.90;99.90;;;;;;5031997;28;20107;-80
2022/11/12 04:22:20;;;;;;;10.65;4.88;;;8.90;99.90;;;;;;5036076;28;20053;-78
2022/11/12 04:28:09;;;;;;;7.15;4.65;;;8.80;99.90;;;;;;5049039;28;20110;-78
2022/11/12 04:30:53;;;;;;;8.07;4.53;;;8.80;99.90;;;;;;5036498;28;20417;-78
2022/11/12 04:33:39;;;;;;;8.82;4.70;;;8.80;99.90;;;;;;5037311;28;20056;-78
2022/11/12 04:36:24;;;;;;;7.85;4.30;;;8.80;99.90;;;;;;5039361;28;20095;-78
2022/11/12 04:39:11;;;;;;;9.80;4.50;;;8.80;99.90;;;;;;5050674;28;20063;-78
2022/11/12 04:45:00;;;;;;;7.40;4.30;;;8.70;99.90;;;;;;5043276;28;20075;-78
2022/11/12 04:47:45;;;;;;;8.73;4.57;;;8.70;99.90;;;;;;5056506;28;20063;-78
2022/11/12 04:50:31;;;;;;;7.57;4.20;;;8.70;99.90;;;;;;5044596;28;20071;-78
2022/11/12 04:53:16;;;;;;;7.40;4.28;;;8.70;99.90;;;;;;5048958;28;20055;-78
2022/11/12 04:56:04;;;;;;;8.50;4.20;;;8.70;99.90;;;;;;5039651;28;20522;-78
2022/11/12 04:58:49;;;;;;;8.63;4.78;;;8.60;99.90;;;;;;5051055;28;20121;-78
2022/11/12 05:01:35;;;;;;;8.05;4.13;;;8.60;99.90;;;;;;5040843;28;20063;-78
2022/11/12 05:04:20;;;;;;;7.30;4.30;;;8.60;99.90;;;;;;5048652;28;20531;-78
2022/11/12 05:07:07;;;;;;;7.38;4.85;;;8.60;99.90;;;;;;5036027;28;20497;-78
2022/11/12 05:09:52;;;;;;;7.57;4.07;;;8.60;99.90;;;;;;5043736;28;20048;-78
2022/11/12 05:12:39;;;;;;;6.22;3.80;;;8.50;99.90;;;;;;5050655;28;20055;-78
2022/11/12 05:15:25;;;;;;;8.95;4.10;;;8.50;99.90;;;;;;5053648;28;20059;-78
2022/11/12 05:18:10;;;;;;;7.65;4.20;;;8.50;99.90;;;;;;5038847;28;20122;-78
2022/11/12 05:20:56;;;;;;;9.05;3.88;;;8.50;99.90;;;;;;5047678;28;20178;-78
2022/11/12 05:23:42;;;;;;;10.55;4.32;;;8.50;99.90;;;;;;5046262;28;20471;-78
2022/11/12 05:26:28;;;;;;;7.88;4.00;;;8.50;99.90;;;;;;5039495;28;20250;-78
2022/11/12 05:29:15;;;;;;;7.78;4.32;;;8.50;99.90;;;;;;5044585;28;20051;-78
2022/11/12 05:32:00;;;;;;;7.13;4.20;;;8.50;99.90;;;;;;5042446;28;20655;-78
2022/11/12 05:34:49;;;;;;;7.22;3.75;;;8.40;99.90;;;;;;5046385;28;20063;-78
2022/11/12 05:37:34;;;;;;;6.70;4.00;;;8.50;99.90;;;;;;5052951;28;20122;-78
2022/11/12 05:40:20;;;;;;;8.30;4.13;;;8.40;99.90;;;;;;5042350;28;20472;-78
2022/11/12 05:43:05;;;;;;;6.28;3.67;;;8.50;99.90;;;;;;5055963;28;20056;-78
2022/11/12 05:45:52;;;;;;;9.60;4.18;;;8.40;99.90;;;;;;5032191;28;20544;-78
2022/11/12 05:48:37;;;;;;;8.25;3.97;;;8.40;99.90;;;;;;5041350;28;20099;-78
2022/11/12 05:51:23;;;;;;;7.88;4.25;;;8.40;99.90;;;;;;5050860;28;20156;-78
2022/11/12 05:54:09;;;;;;;8.25;4.32;;;8.30;99.90;;;;;;5045797;28;20056;-78
2022/11/12 05:56:54;;;;;;;8.48;3.90;;;8.40;99.90;;;;;;5046823;28;20819;-78
2022/11/12 05:59:40;;;;;;;8.02;4.00;;;8.30;99.90;;;;;;5050793;28;20064;-78
2022/11/12 06:02:27;;;;;;;7.85;3.80;;;8.30;99.90;;;;;;5057602;28;20470;-77
2022/11/12 06:05:12;;;;;;;8.13;4.05;;;8.30;99.90;;;;;;5057674;28;20059;-79
2022/11/12 06:07:58;;;;;;;7.40;4.03;;;8.30;99.90;;;;;;5047613;28;20110;-81
2022/11/12 06:10:48;;;;;;;6.90;4.05;;;8.30;99.90;;;;;;5046821;28;20063;-81
2022/11/12 06:13:33;;;;;;;7.00;4.25;;;8.30;99.90;;;;;;5043115;28;20069;-81
2022/11/12 06:16:19;;;;;;;8.57;4.57;;;8.20;99.90;;;;;;5044904;28;20068;-82
2022/11/12 06:19:06;;;;;;;7.82;4.75;;;8.20;99.90;;;;;;5068587;28;20608;-81
2022/11/12 06:21:51;;;;;;;9.13;4.78;;;8.20;99.90;;;;;;5041779;28;20413;-82
2022/11/12 06:24:37;;;;;;;8.70;4.68;;;8.20;99.90;;;;;;5036221;28;20150;-81
2022/11/12 06:27:23;;;;;;;9.93;4.68;;;8.40;99.90;;;;;;5049509;28;20198;-81
2022/11/12 06:30:09;;;;;;;7.47;4.05;;;8.10;99.90;;;;;;5048281;28;20167;-81
2022/11/12 06:32:55;;;;;;;8.82;4.32;;;8.10;99.90;;;;;;5029716;28;20521;-81
2022/11/12 06:35:42;;;;;;;6.90;4.22;;;8.20;99.90;;;;;;5038548;28;20060;-82
2022/11/12 06:38:27;;;;;;;7.00;4.32;;;8.10;99.90;;;;;;5046171;28;20532;-81
2022/11/12 06:41:14;;;;;;;8.95;4.35;;;8.10;99.90;;;;;;5030057;28;20088;-82
2022/11/12 06:43:59;;;;;;;8.40;4.45;;;8.10;99.90;;;;;;5043800;28;20130;-78
2022/11/12 06:46:44;;;;;;;6.93;4.30;;;8.10;99.90;;;;;;5049009;28;20052;-84
2022/11/12 06:49:30;;;;;;;6.90;4.35;;;8.10;99.90;;;;;;5048700;28;20103;-88
2022/11/12 06:52:17;;;;;;;7.20;4.07;;;8.10;99.90;;;;;;5048236;28;20087;-83
2022/11/12 06:55:02;;;;;;;8.30;3.92;;;8.10;99.90;;;;;;5043782;28;20134;-85
2022/11/12 06:57:51;;;;;;;5.82;3.70;;;8.10;99.90;;;;;;5043818;28;20113;-85
2022/11/12 07:00:36;;;;;;;7.07;3.90;;;8.10;99.90;;;;;;5048055;28;20159;-85
2022/11/12 07:03:22;;;;;;;7.53;3.63;;;8.10;99.90;;;;;;5042290;28;20048;-86
2022/11/12 07:06:10;;;;;;;7.07;3.92;;;8.20;99.90;;;;;;5039129;28;20426;-80
2022/11/12 07:08:56;;;;;;;6.25;3.50;;;8.20;99.90;;;;;;5039407;28;20068;-79
2022/11/12 07:11:42;;;;;;;7.07;3.90;;;8.20;99.90;;;;;;5036343;28;20533;-79
2022/11/12 07:14:27;;;;;;;9.13;3.65;;;8.10;99.90;;;;;;5035703;28;20110;-80
2022/11/12 07:17:12;;;;;;;7.05;3.90;;;8.10;99.90;;;;;;5052841;28;20571;-80
2022/11/12 07:19:59;;;;;;;5.25;3.30;;;8.20;99.90;;;;;;5033475;28;20068;-79
2022/11/12 07:22:45;;;;;;;8.75;4.03;;;8.20;99.90;;;;;;5052053;28;20417;-80
2022/11/12 07:25:32;;;;;;;7.28;3.85;;;8.20;99.90;;;;;;5038403;28;20056;-80
2022/11/12 07:28:17;;;;;;;6.85;3.72;;;8.20;99.90;;;;;;5072985;28;20067;-79
2022/11/12 07:31:05;;;;;;;6.65;4.00;;;8.20;99.90;;;;;;5048883;28;20064;-82
2022/11/12 07:33:50;;;;;;;7.70;3.65;;;8.20;99.90;;;;;;5039883;28;20174;-81
2022/11/12 07:36:36;;;;;;;8.88;4.47;;;8.20;99.90;;;;;;5037986;28;20052;-82
2022/11/12 07:39:21;;;;;;;8.68;4.53;;;8.30;99.90;;;;;;5035153;28;20071;-82
2022/11/12 07:42:08;;;;;;;7.20;4.50;;;8.30;99.90;;;;;;5030656;28;20052;-82
2022/11/12 07:44:54;;;;;;;9.80;4.50;;;8.40;99.90;;;;;;5032818;28;20053;-82
2022/11/12 07:47:39;;;;;;;11.25;4.80;;;8.40;99.90;;;;;;5037646;28;20520;-82
2022/11/12 07:50:27;;;;;;;12.30;5.00;;;8.40;99.90;;;;;;5030748;28;20064;-82
2022/11/12 07:53:12;;;;;;;7.82;4.60;;;8.40;99.90;;;;;;5043949;28;20052;-82
2022/11/12 07:55:59;;;;;;;12.73;4.78;;;8.50;99.90;;;;;;5044004;28;20466;-82
2022/11/12 07:58:47;;;;;;;11.05;4.72;;;8.50;99.90;;;;;;5040726;28;20056;-82
2022/11/12 08:01:33;;;;;;;11.63;4.20;;;8.60;99.90;;;;;;5033737;28;20064;-81
2022/11/12 08:04:19;;;;;;;7.60;4.03;;;8.60;99.90;;;;;;5034504;28;20055;-80
2022/11/12 08:07:05;;;;;;;7.00;4.35;;;8.60;99.90;;;;;;5042300;28;20255;-83
2022/11/12 08:09:50;;;;;;;8.55;4.70;;;8.60;99.90;;;;;;5036096;28;20107;-83
2022/11/12 08:12:35;;;;;;;7.57;3.90;;;8.60;99.90;;;;;;5046225;28;20523;-83
2022/11/12 08:15:22;;;;;;;8.10;4.47;;;8.70;99.90;;;;;;5047324;28;20095;-82
2022/11/12 08:18:08;;;;;;;8.13;4.43;;;8.70;99.90;;;;;;5051978;28;20531;-83
2022/11/12 08:21:00;;;;;;;11.45;4.30;;;8.80;99.90;;;;;;5050277;28;20114;-82
2022/11/12 08:23:45;;;;;;;8.43;4.90;;;8.90;99.90;;;;;;5036946;28;20830;-82
2022/11/12 08:26:31;;;;;;;8.35;4.28;;;8.90;99.90;;;;;;5048915;28;20102;-83
2022/11/12 08:29:17;;;;;;;9.70;4.28;;;9.00;99.90;;;;;;5043836;28;20063;-80
2022/11/12 08:32:04;;;;;;;6.80;3.97;;;9.00;99.90;;;;;;5051294;28;20059;-81
2022/11/12 08:34:49;;;;;;;7.10;4.38;;;9.10;99.90;;;;;;5049682;28;20068;-78
2022/11/12 08:37:34;;;;;;;8.88;4.38;;;9.20;99.90;;;;;;5051301;28;20051;-80
2022/11/12 08:40:20;;;;;;;10.43;4.50;;;9.30;99.90;;;;;;5051198;28;20055;-79
2022/11/12 08:43:08;;;;;;;8.10;4.28;;;9.30;99.90;;;;;;5048622;28;20047;-83
2022/11/12 08:45:53;;;;;;;6.70;4.35;;;9.40;99.90;;;;;;5048375;28;20056;-80
2022/11/12 08:48:40;;;;;;;8.88;4.70;;;9.50;99.90;;;;;;5049047;28;20429;-77
2022/11/12 08:51:25;;;;;;;9.07;5.30;;;9.50;99.90;;;;;;5037275;28;20103;-78
2022/11/12 08:54:11;;;;;;;12.95;5.63;;;9.60;99.90;;;;;;5045776;28;20187;-78
2022/11/12 08:56:56;;;;;;;11.20;5.60;;;9.60;99.90;;;;;;5041967;28;20064;-86
2022/11/12 08:59:42;;;;;;;13.55;4.55;;;9.70;99.90;;;;;;5036460;28;20110;-78
2022/11/12 09:02:28;;;;;;;9.07;5.13;;;9.70;99.90;;;;;;5050853;28;20536;-78
2022/11/12 09:05:15;;;;;;;11.18;5.10;;;9.80;99.90;;;;;;5039570;28;20437;-79
2022/11/12 09:08:01;;;;;;;9.35;4.20;;;9.80;99.90;;;;;;5049644;28;20110;-78
2022/11/12 09:10:46;;;;;;;7.35;4.25;;;9.90;99.90;;;;;;5046240;28;20137;-85
2022/11/12 09:13:32;;;;;;;8.68;4.07;;;10.00;99.90;;;;;;5039049;28;20593;-80
2022/11/12 09:16:18;;;;;;;6.85;3.95;;;10.00;99.90;;;;;;5050206;28;20105;-81
2022/11/12 09:19:03;;;;;;;7.50;3.97;;;10.10;99.90;;;;;;5046587;28;20051;-90
2022/11/12 09:21:50;;;;;;;7.80;4.25;;;10.10;99.90;;;;;;5042841;28;20057;-84
2022/11/12 09:24:36;;;;;;;8.57;4.18;;;10.20;99.90;;;;;;5044102;28;20064;-87
2022/11/12 09:27:21;;;;;;;7.88;4.00;;;10.30;99.90;;;;;;5050951;28;20060;-90
2022/11/12 09:30:08;;;;;;;8.48;3.80;;;10.40;99.90;;;;;;5048017;28;20052;-90
2022/11/12 09:32:57;;;;;;;10.30;3.92;;;10.50;99.90;;;;;;5042262;28;20170;-91
2022/11/12 09:35:44;;;;;;;9.55;4.45;;;10.50;99.90;;;;;;5043741;28;20063;-88
2022/11/12 09:38:31;;;;;;;9.65;4.18;;;10.50;99.90;;;;;;5041872;28;20056;-88
2022/11/12 09:41:22;;;;;;;10.38;4.82;;;10.60;99.90;;;;;;5040033;28;20060;-90
2022/11/12 09:44:11;;;;;;;11.13;4.82;;;10.70;99.90;;;;;;5038220;28;20525;-90
2022/11/12 09:47:00;;;;;;;10.00;4.85;;;10.80;99.90;;;;;;5050518;28;20064;-89
2022/11/12 09:49:52;;;;;;;10.93;5.30;;;10.80;99.90;;;;;;5050022;28;20064;-89
2022/11/12 09:52:38;;;;;;;10.20;6.40;;;10.90;99.90;;;;;;5043477;28;20182;-91
2022/11/12 09:55:29;;;;;;;12.27;5.80;;;11.00;99.90;;;;;;5039276;28;20052;-91
2022/11/12 09:58:16;;;;;;;8.63;5.57;;;11.10;99.90;;;;;;5040112;28;20050;-84
2022/11/12 10:01:06;;;;;;;9.60;5.60;;;11.10;99.90;;;;;;5038543;28;20330;-93
2022/11/12 10:04:00;;;;;;;10.43;5.60;;;11.20;99.90;;;;;;5043730;28;20603;-84
2022/11/12 10:06:51;;;;;;;9.45;4.80;;;11.30;99.90;;;;;;5038140;28;20528;-88
2022/11/12 10:09:46;;;;;;;9.15;4.63;;;11.30;99.90;;;;;;5035792;28;20068;-88
2022/11/12 10:12:43;;;;;;;9.13;4.90;;;11.40;99.90;;;;;;5039339;28;20047;-81
2022/11/12 10:18:52;;;;;;;7.40;4.55;;;11.50;99.90;;;;;;5053514;28;20587;-88
2022/11/12 10:21:45;;;;;;;7.00;4.38;;;11.60;99.90;;;;;;5034928;28;20735;-87
2022/11/12 10:24:34;;;;;;;10.10;5.43;;;11.70;99.90;;;;;;5041308;28;20068;-87
2022/11/12 10:27:21;;;;;;;9.85;6.00;;;11.80;99.90;;;;;;5038022;28;20056;-87
2022/11/12 10:30:15;;;;;;;9.57;5.55;;;11.80;99.90;;;;;;5036363;28;20056;-88
2022/11/12 10:33:00;;;;;;;8.45;5.13;;;11.90;99.90;;;;;;5042127;28;20045;-87
2022/11/12 10:35:46;;;;;;;8.07;4.88;;;11.90;99.90;;;;;;5057195;28;20109;-87
2022/11/12 10:38:33;;;;;;;12.88;5.47;;;12.00;99.90;;;;;;5058594;28;20194;-88
2022/11/12 10:41:22;;;;;;;9.00;5.35;;;12.00;99.90;;;;;;5060483;28;20052;-87
2022/11/12 10:44:14;;;;;;;10.63;5.85;;;12.10;99.90;;;;;;5056964;28;20063;-88
2022/11/12 10:47:21;;;;;;;9.75;5.68;;;12.20;99.90;;;;;;5043707;28;20056;-88
2022/11/12 10:50:19;;;;;;;11.77;6.55;;;12.20;99.90;;;;;;5048053;28;20056;-87
2022/11/12 10:53:07;;;;;;;10.73;6.10;;;12.30;99.90;;;;;;5037362;28;20196;-89
2022/11/12 10:55:57;;;;;;;13.50;5.95;;;12.30;99.90;;;;;;5029095;28;20095;-88
2022/11/12 10:58:43;;;;;;;9.85;5.97;;;12.40;99.90;;;;;;5044328;28;20145;-88
2022/11/12 11:01:28;;;;;;;12.27;5.93;;;12.40;99.90;;;;;;5039274;28;20060;-87
2022/11/12 11:04:25;;;;;;;10.65;6.03;;;12.50;99.90;;;;;;5045976;28;20091;-88
2022/11/12 11:07:20;;;;;;;11.35;5.97;;;12.50;99.90;;;;;;5044097;28;20060;-88
2022/11/12 11:10:11;;;;;;;9.32;5.53;;;12.60;99.90;;;;;;5050049;28;20132;-88
2022/11/12 11:13:17;;;;;;;13.35;6.22;;;12.60;99.90;;;;;;5051101;28;20057;-88
2022/11/12 11:16:05;;;;;;;11.90;5.63;;;12.70;99.90;;;;;;5044319;28;21758;-88
2022/11/12 11:18:54;;;;;;;11.07;6.03;;;12.70;99.90;;;;;;5047439;28;20177;-86
2022/11/12 11:22:10;;;;;;;14.68;6.38;;;12.70;99.90;;;;;;5048921;28;20106;-88
2022/11/12 11:25:06;;;;;;;17.35;5.82;;;12.80;99.90;;;;;;5039391;28;20068;-92
2022/11/12 11:28:06;;;;;;;13.23;6.68;;;12.80;99.90;;;;;;5371396;22;20555;-85
2022/11/12 11:30:58;;;;;;;11.80;6.13;;;12.90;99.90;;;;;;5049986;28;20535;-86
2022/11/12 11:33:48;;;;;;;11.10;5.63;;;12.90;99.90;;;;;;5051692;28;20053;-94
2022/11/12 11:36:41;;;;;;;11.73;5.97;;;13.00;99.90;;;;;;5051526;28;20183;-92
2022/11/12 11:39:35;;;;;;;10.18;4.95;;;13.00;99.90;;;;;;5061655;28;20060;-86
2022/11/12 11:42:37;;;;;;;11.73;4.65;;;13.00;99.90;;;;;;5043004;28;20095;-87
2022/11/12 11:45:27;;;;;;;7.88;4.53;;;13.10;99.90;;;;;;5038528;28;20048;-86
2022/11/12 11:48:16;;;;;;;9.20;4.60;;;13.10;99.90;;;;;;5047575;28;20786;-86
2022/11/12 12:16:13;;;;;;;13.90;4.82;;;13.50;99.90;;;;;;5625642;22;20059;-87
2022/11/12 12:19:04;;;;;;;10.38;4.78;;;13.50;99.90;;;;;;5077576;28;20073;-87
2022/11/12 12:21:51;;;;;;;8.60;4.40;;;13.50;99.90;;;;;;5052963;28;20211;-86
2022/11/12 12:24:44;;;;;;;7.47;3.95;;;13.60;99.90;;;;;;5063322;28;20095;-87
2022/11/12 12:27:32;;;;;;;10.38;4.38;;;13.60;99.90;;;;;;5053810;28;20059;-85
2022/11/12 12:30:20;;;;;;;7.35;3.97;;;13.60;99.90;;;;;;5067494;28;20800;-87
2022/11/12 12:33:18;;;;;;;8.32;4.05;;;13.60;99.90;;;;;;5054322;28;20130;-85
2022/11/12 12:36:06;;;;;;;6.68;3.67;;;13.70;99.90;;;;;;5059314;28;20095;-86
2022/11/12 12:38:53;;;;;;;11.20;4.50;;;13.70;99.90;;;;;;5060715;28;20059;-87
2022/11/12 12:41:46;;;;;;;8.40;3.72;;;13.70;99.90;;;;;;5060259;28;20157;-87
2022/11/12 12:47:43;;;;;;;11.70;4.13;;;13.80;99.90;;;;;;5062168;28;20128;-87
2022/11/12 12:50:30;;;;;;;9.10;4.40;;;13.80;99.90;;;;;;5060385;28;20076;-88
2022/11/12 12:53:18;;;;;;;8.90;4.25;;;13.80;99.90;;;;;;5057428;28;20136;-88
2022/11/12 12:56:05;;;;;;;7.38;4.22;;;13.80;99.90;;;;;;5062150;28;20066;-87
2022/11/12 12:58:51;;;;;;;10.45;4.28;;;13.80;99.90;;;;;;5052749;28;20110;-83
2022/11/12 13:01:37;;;;;;;8.60;4.20;;;13.90;99.90;;;;;;5070175;28;20544;-88
2022/11/12 13:04:49;;;;;;;9.15;4.35;;;13.90;99.90;;;;;;5067978;28;20082;-91
2022/11/12 13:07:42;;;;;;;8.40;4.50;;;13.90;99.90;;;;;;5055048;28;20852;-87
2022/11/12 13:10:52;;;;;;;9.25;4.80;;;14.00;99.90;;;;;;5064085;28;20137;-88
2022/11/12 13:13:38;;;;;;;11.18;5.57;;;14.00;99.90;;;;;;5055207;28;20040;-85
2022/11/12 13:16:56;;;;;;;10.52;5.35;;;14.10;99.90;;;;;;5070910;28;20539;-82
2022/11/12 13:19:45;;;;;;;12.57;5.32;;;14.00;99.90;;;;;;5070860;28;20059;-82
2022/11/12 13:22:46;;;;;;;12.43;5.47;;;14.10;99.90;;;;;;5071099;28;20056;-82
2022/11/12 13:25:33;;;;;;;9.15;4.43;;;14.10;99.90;;;;;;5065836;28;20055;-85
2022/11/12 13:28:18;;;;;;;7.93;4.75;;;14.10;99.90;;;;;;5051047;28;20056;-87
2022/11/12 13:31:20;;;;;;;10.13;4.85;;;14.20;99.90;;;;;;5051155;28;20126;-92
2022/11/12 13:34:13;;;;;;;8.98;4.47;;;14.20;99.90;;;;;;5069687;28;20097;-91
2022/11/12 13:37:02;;;;;;;5.72;3.78;;;14.20;99.90;;;;;;5054416;28;20055;-89
2022/11/12 13:39:47;;;;;;;8.48;4.10;;;14.30;99.90;;;;;;5049090;28;20191;-90
2022/11/12 13:42:51;;;;;;;7.50;3.17;;;14.30;99.90;;;;;;5061285;28;20141;-91
2022/11/12 13:45:42;;;;;;;7.75;3.65;;;14.30;99.90;;;;;;5048777;28;20563;-86
2022/11/12 13:48:28;;;;;;;;;;;14.30;99.90;;;;;;5056614;28;20059;-85
2022/11/12 13:51:16;;;;;;;8.25;3.80;;;14.30;99.90;;;;;;5068891;28;19928;-86
2022/11/12 13:54:01;;;;;;;7.07;3.28;;;14.50;99.90;;;;;;5069110;28;20523;-86
2022/11/12 13:56:47;;;;;;;8.05;3.42;;;14.40;99.90;;;;;;5070177;28;20058;-86
2022/11/12 13:59:34;;;;;;;9.05;4.00;;;14.40;99.70;;;;;;5055567;28;20064;-85
2022/11/12 14:02:22;;;;;;;7.07;3.15;;;14.40;99.90;;;;;;5065738;28;20059;-84
2022/11/12 14:05:14;;;;;;;10.35;4.80;;;14.40;99.40;;;;;;5065741;28;20047;-85
2022/11/12 14:08:39;;;;;;;7.18;3.78;;;14.50;99.30;;;;;;5050020;28;20059;-85
2022/11/12 14:11:52;;;;;;;6.30;2.75;;;14.50;99.40;;;;;;5052308;28;20071;-84
2022/11/12 14:14:51;;;;;;;5.78;2.40;;;14.50;99.60;;;;;;5061453;28;20158;-87
2022/11/12 14:17:41;;;;;;;3.63;1.60;;;14.50;99.10;;;;;;5058345;28;20071;-88
2022/11/12 14:20:29;;;;;;;5.07;2.38;;;14.50;98.20;;;;;;5059918;28;20063;-88
2022/11/12 14:23:16;;;;;;;6.80;2.97;;;14.50;97.60;;;;;;5065051;28;20165;-87
2022/11/12 14:26:01;;;;;;;10.48;3.78;;;14.50;98.30;;;;;;5063199;28;20063;-90
2022/11/12 14:28:56;;;;;;;6.75;3.55;;;14.50;98.90;;;;;;5065682;28;20059;-90
2022/11/12 14:31:43;;;;;;;8.05;3.70;;;14.50;99.60;;;;;;5057597;28;20539;-88
2022/11/12 14:34:30;;;;;;;6.63;3.67;;;14.70;99.90;;;;;;5069543;28;20429;-88
2022/11/12 14:37:29;;;;;;;14.23;3.75;;;14.50;99.90;;;;;;5087865;28;20051;-87
2022/11/12 14:40:16;;;;;;;7.10;3.60;;;14.50;99.90;;;;;;5082129;28;20118;-87
2022/11/12 14:43:02;;;;;;;8.32;3.60;;;14.50;99.90;;;;;;5092388;28;20043;-91
2022/11/12 14:45:48;;;;;;;9.23;3.25;;;14.50;99.90;;;;;;5052911;28;20179;-90
2022/11/12 14:48:45;;;;;;;6.43;3.33;;;14.50;99.90;;;;;;5069256;28;20051;-91
2022/11/12 14:51:32;;;;;;;9.30;3.30;;;14.40;99.90;;;;;;5050138;28;20056;-91
2022/11/12 14:54:26;;;;;;;7.65;3.28;;;14.40;99.90;;;;;;5065613;28;20055;-92
2022/11/12 14:57:18;;;;;;;5.80;3.22;;;14.40;99.90;;;;;;5069895;28;20074;-92
2022/11/12 15:00:18;;;;;;;6.97;3.30;;;14.40;99.90;;;;;;5058066;28;20564;-92
2022/11/12 15:03:04;;;;;;;7.53;2.95;;;14.30;99.90;;;;;;5048246;28;20052;-93
2022/11/12 15:05:57;;;;;;;7.68;2.97;;;14.30;99.90;;;;;;5052057;28;20612;-92
2022/11/12 15:08:42;;;;;;;5.90;2.85;;;14.30;99.90;;;;;;5067247;28;20186;-93
2022/11/12 15:11:34;;;;;;;6.78;3.15;;;14.30;99.90;;;;;;5059094;28;20060;-93
2022/11/12 15:14:23;;;;;;;;;;;14.20;99.90;;;;;;5062162;28;20148;-93
2022/11/12 15:17:26;;;;;;;8.55;3.95;;;14.20;99.90;;;;;;5062560;28;19931;-93
2022/11/12 15:20:33;;;;;;;8.38;4.50;;;14.20;99.90;;;;;;5056872;28;20540;-92
2022/11/12 15:23:27;;;;;;;10.35;5.00;;;14.20;99.90;;;;;;5062145;28;20063;-91
2022/11/12 15:26:23;;;;;;;12.90;4.88;;;14.20;99.90;;;;;;5058035;28;20046;-92
2022/11/12 15:29:29;;;;;;;9.80;4.70;;;14.10;99.90;;;;;;5056796;28;20059;-91
2022/11/12 15:32:32;;;;;;;11.35;5.25;;;14.00;99.90;;;;;;5059511;28;20064;-93